sensor_id;sensor_type;location;lat;lon;timestamp;pressure;altitude;pressure_sealevel;temperature;humidity
53932;BME280;39844;52.496;13.482;2023-03-16T00:01:30;101912.97;;;1.48;88.27
53932;BME280;39844;52.496;13.482;2023-03-16T00:03:55;101918.00;;;1.45;88.92
53932;BME280;39844;52.496;13.482;2023-03-16T00:06:21;101913.63;;;1.44;88.89
53932;BME280;39844;52.496;13.482;2023-03-16T00:08:46;101916.06;;;1.41;88.92
53932;BME280;39844;52.496;13.482;2023-03-16T00:11:11;101922.84;;;1.39;89.13
53932;BME280;39844;52.496;13.482;2023-03-16T00:13:37;101925.38;;;1.37;89.48
53932;BME280;39844;52.496;13.482;2023-03-16T00:16:02;101931.28;;;1.35;89.53
53932;BME280;39844;52.496;13.482;2023-03-16T00:18:28;101925.94;;;1.32;89.80
53932;BME280;39844;52.496;13.482;2023-03-16T00:20:55;101927.56;;;1.30;90.20
53932;BME280;39844;52.496;13.482;2023-03-16T00:23:21;101923.19;;;1.28;90.42
53932;BME280;39844;52.496;13.482;2023-03-16T00:25:47;101929.03;;;1.24;90.58
53932;BME280;39844;52.496;13.482;2023-03-16T00:28:12;101928.84;;;1.21;90.37
53932;BME280;39844;52.496;13.482;2023-03-16T00:30:37;101932.16;;;1.19;90.45
53932;BME280;39844;52.496;13.482;2023-03-16T00:33:02;101922.63;;;1.18;90.73
53932;BME280;39844;52.496;13.482;2023-03-16T00:35:28;101923.34;;;1.15;90.73
53932;BME280;39844;52.496;13.482;2023-03-16T00:37:53;101931.91;;;1.14;90.62
53932;BME280;39844;52.496;13.482;2023-03-16T00:40:18;101933.50;;;1.12;91.06
53932;BME280;39844;52.496;13.482;2023-03-16T00:42:44;101934.25;;;1.10;91.14
53932;BME280;39844;52.496;13.482;2023-03-16T00:45:09;101933.22;;;1.06;91.22
53932;BME280;39844;52.496;13.482;2023-03-16T00:47:35;101940.78;;;1.03;91.32
53932;BME280;39844;52.496;13.482;2023-03-16T00:50:01;101939.84;;;1.01;91.58
53932;BME280;39844;52.496;13.482;2023-03-16T00:52:29;101936.25;;;0.99;91.58
53932;BME280;39844;52.496;13.482;2023-03-16T00:54:55;101942.16;;;0.97;91.81
53932;BME280;39844;52.496;13.482;2023-03-16T00:57:22;101944.72;;;0.97;91.72
53932;BME280;39844;52.496;13.482;2023-03-16T00:59:48;101939.50;;;0.95;91.67
53932;BME280;39844;52.496;13.482;2023-03-16T01:02:15;101943.59;;;0.92;91.30
53932;BME280;39844;52.496;13.482;2023-03-16T01:04:42;101940.94;;;0.90;91.32
53932;BME280;39844;52.496;13.482;2023-03-16T01:07:10;101947.72;;;0.88;91.59
53932;BME280;39844;52.496;13.482;2023-03-16T01:09:35;101948.53;;;0.87;91.65
53932;BME280;39844;52.496;13.482;2023-03-16T01:12:10;101946.75;;;0.86;91.64
53932;BME280;39844;52.496;13.482;2023-03-16T01:14:36;101950.13;;;0.85;91.70
53932;BME280;39844;52.496;13.482;2023-03-16T01:17:03;101949.19;;;0.83;91.82
53932;BME280;39844;52.496;13.482;2023-03-16T01:19:29;101945.63;;;0.81;91.51
53932;BME280;39844;52.496;13.482;2023-03-16T01:21:55;101947.22;;;0.79;91.89
53932;BME280;39844;52.496;13.482;2023-03-16T01:24:20;101938.66;;;0.80;91.73
53932;BME280;39844;52.496;13.482;2023-03-16T01:26:46;101940.28;;;0.78;92.27
53932;BME280;39844;52.496;13.482;2023-03-16T01:29:11;101936.72;;;0.76;92.06
53932;BME280;39844;52.496;13.482;2023-03-16T01:31:37;101947.06;;;0.76;92.22
53932;BME280;39844;52.496;13.482;2023-03-16T01:34:02;101942.63;;;0.74;92.27
53932;BME280;39844;52.496;13.482;2023-03-16T01:36:27;101944.19;;;0.72;92.00
53932;BME280;39844;52.496;13.482;2023-03-16T01:38:52;101944.13;;;0.70;91.93
53932;BME280;39844;52.496;13.482;2023-03-16T01:41:18;101937.19;;;0.69;92.19
53932;BME280;39844;52.496;13.482;2023-03-16T01:43:43;101941.38;;;0.67;92.25
53932;BME280;39844;52.496;13.482;2023-03-16T01:46:23;101950.66;;;0.63;92.04
53932;BME280;39844;52.496;13.482;2023-03-16T01:49:00;101947.81;;;0.59;92.13
53932;BME280;39844;52.496;13.482;2023-03-16T01:51:37;101950.31;;;0.57;92.64
53932;BME280;39844;52.496;13.482;2023-03-16T01:54:43;101951.84;;;0.54;92.65
53932;BME280;39844;52.496;13.482;2023-03-16T01:57:25;101948.22;;;0.50;93.22
53932;BME280;39844;52.496;13.482;2023-03-16T01:59:54;101949.00;;;0.49;93.22
53932;BME280;39844;52.496;13.482;2023-03-16T02:02:24;101948.94;;;0.48;93.06
53932;BME280;39844;52.496;13.482;2023-03-16T02:07:31;101946.97;;;0.44;92.98
53932;BME280;39844;52.496;13.482;2023-03-16T02:09:59;101939.94;;;0.41;92.76
53932;BME280;39844;52.496;13.482;2023-03-16T02:12:25;101939.84;;;0.40;92.79
53932;BME280;39844;52.496;13.482;2023-03-16T02:14:51;101944.84;;;0.37;92.56
53932;BME280;39844;52.496;13.482;2023-03-16T02:17:23;101936.13;;;0.35;92.94
53932;BME280;39844;52.496;13.482;2023-03-16T02:19:55;101936.13;;;0.35;93.12
53932;BME280;39844;52.496;13.482;2023-03-16T02:22:22;101934.25;;;0.32;92.93
53932;BME280;39844;52.496;13.482;2023-03-16T02:24:48;101936.75;;;0.31;93.03
53932;BME280;39844;52.496;13.482;2023-03-16T02:27:22;101935.75;;;0.29;93.32
53932;BME280;39844;52.496;13.482;2023-03-16T02:29:56;101937.38;;;0.27;93.18
53932;BME280;39844;52.496;13.482;2023-03-16T02:32:24;101940.75;;;0.26;93.69
53932;BME280;39844;52.496;13.482;2023-03-16T02:34:50;101933.84;;;0.25;93.95
53932;BME280;39844;52.496;13.482;2023-03-16T02:37:16;101935.44;;;0.23;93.86
53932;BME280;39844;52.496;13.482;2023-03-16T02:39:41;101946.47;;;0.20;93.75
53932;BME280;39844;52.496;13.482;2023-03-16T02:42:11;101947.19;;;0.18;93.86
53932;BME280;39844;52.496;13.482;2023-03-16T02:44:37;101942.75;;;0.15;93.67
53932;BME280;39844;52.496;13.482;2023-03-16T02:47:06;101948.69;;;0.14;93.93
53932;BME280;39844;52.496;13.482;2023-03-16T02:49:37;101951.09;;;0.11;93.91
53932;BME280;39844;52.496;13.482;2023-03-16T02:52:06;101944.19;;;0.10;93.89
53932;BME280;39844;52.496;13.482;2023-03-16T02:54:32;101941.50;;;0.09;93.83
53932;BME280;39844;52.496;13.482;2023-03-16T02:56:57;101956.97;;;0.09;93.95
53932;BME280;39844;52.496;13.482;2023-03-16T02:59:23;101947.38;;;0.06;93.99
53932;BME280;39844;52.496;13.482;2023-03-16T03:01:48;101945.63;;;0.05;93.55
53932;BME280;39844;52.496;13.482;2023-03-16T03:04:14;101950.78;;;0.05;93.89
53932;BME280;39844;52.496;13.482;2023-03-16T03:06:39;101954.13;;;0.04;93.72
53932;BME280;39844;52.496;13.482;2023-03-16T03:09:05;101955.81;;;0.04;93.50
53932;BME280;39844;52.496;13.482;2023-03-16T03:11:30;101955.81;;;0.04;93.79
53932;BME280;39844;52.496;13.482;2023-03-16T03:13:56;101963.38;;;0.00;93.53
53932;BME280;39844;52.496;13.482;2023-03-16T03:16:21;101962.41;;;-0.02;93.58
53932;BME280;39844;52.496;13.482;2023-03-16T03:18:47;101969.06;;;-0.05;93.24
53932;BME280;39844;52.496;13.482;2023-03-16T03:21:13;101965.53;;;-0.07;93.52
53932;BME280;39844;52.496;13.482;2023-03-16T03:23:39;101974.78;;;-0.11;93.42
53932;BME280;39844;52.496;13.482;2023-03-16T03:26:05;101975.50;;;-0.13;93.71
53932;BME280;39844;52.496;13.482;2023-03-16T03:28:30;101974.59;;;-0.14;94.01
53932;BME280;39844;52.496;13.482;2023-03-16T03:30:56;101971.06;;;-0.16;94.36
53932;BME280;39844;52.496;13.482;2023-03-16T03:33:21;101980.47;;;-0.16;94.65
53932;BME280;39844;52.496;13.482;2023-03-16T03:35:52;101976.03;;;-0.19;94.82
53932;BME280;39844;52.496;13.482;2023-03-16T03:38:18;101981.97;;;-0.20;94.75
53932;BME280;39844;52.496;13.482;2023-03-16T03:40:43;101972.28;;;-0.24;94.29
53932;BME280;39844;52.496;13.482;2023-03-16T03:43:08;101984.22;;;-0.26;94.38
53932;BME280;39844;52.496;13.482;2023-03-16T03:45:34;101978.88;;;-0.29;94.82
53932;BME280;39844;52.496;13.482;2023-03-16T03:47:59;101982.16;;;-0.31;94.79
53932;BME280;39844;52.496;13.482;2023-03-16T03:50:24;101980.09;;;-0.37;94.73
53932;BME280;39844;52.496;13.482;2023-03-16T03:52:50;101983.28;;;-0.41;94.82
53932;BME280;39844;52.496;13.482;2023-03-16T03:55:15;101981.31;;;-0.45;95.00
53932;BME280;39844;52.496;13.482;2023-03-16T03:57:40;101988.00;;;-0.48;95.33
53932;BME280;39844;52.496;13.482;2023-03-16T04:00:07;101981.03;;;-0.49;95.58
53932;BME280;39844;52.496;13.482;2023-03-16T04:02:32;101981.75;;;-0.52;95.84
53932;BME280;39844;52.496;13.482;2023-03-16T04:04:58;101977.38;;;-0.53;95.52
53932;BME280;39844;52.496;13.482;2023-03-16T04:07:23;101984.25;;;-0.53;96.07
53932;BME280;39844;52.496;13.482;2023-03-16T04:09:48;101984.13;;;-0.55;96.13
53932;BME280;39844;52.496;13.482;2023-03-16T04:12:14;101983.25;;;-0.55;96.30
53932;BME280;39844;52.496;13.482;2023-03-16T04:14:39;101985.75;;;-0.57;96.33
53932;BME280;39844;52.496;13.482;2023-03-16T04:17:04;101990.19;;;-0.54;96.87
53932;BME280;39844;52.496;13.482;2023-03-16T04:19:30;101988.69;;;-0.51;97.18
53932;BME280;39844;52.496;13.482;2023-03-16T04:21:55;101985.56;;;-0.45;97.12
53932;BME280;39844;52.496;13.482;2023-03-16T04:24:20;101980.59;;;-0.42;97.02
53932;BME280;39844;52.496;13.482;2023-03-16T04:26:46;101979.91;;;-0.40;96.80
53932;BME280;39844;52.496;13.482;2023-03-16T04:29:14;101983.44;;;-0.38;96.48
53932;BME280;39844;52.496;13.482;2023-03-16T04:31:40;101983.56;;;-0.36;96.25
53932;BME280;39844;52.496;13.482;2023-03-16T04:34:05;101982.75;;;-0.35;95.82
53932;BME280;39844;52.496;13.482;2023-03-16T04:36:31;101987.03;;;-0.36;95.29
53932;BME280;39844;52.496;13.482;2023-03-16T04:38:56;101982.75;;;-0.35;95.11
53932;BME280;39844;52.496;13.482;2023-03-16T04:41:21;101988.81;;;-0.35;94.81
53932;BME280;39844;52.496;13.482;2023-03-16T04:43:46;101980.28;;;-0.34;94.46
53932;BME280;39844;52.496;13.482;2023-03-16T04:46:12;101992.34;;;-0.33;94.53
53932;BME280;39844;52.496;13.482;2023-03-16T04:48:37;101988.03;;;-0.34;94.34
53932;BME280;39844;52.496;13.482;2023-03-16T04:51:03;101990.59;;;-0.34;93.93
53932;BME280;39844;52.496;13.482;2023-03-16T04:53:31;101992.34;;;-0.33;93.84
53932;BME280;39844;52.496;13.482;2023-03-16T04:55:57;101987.19;;;-0.33;93.72
53932;BME280;39844;52.496;13.482;2023-03-16T04:58:23;101983.84;;;-0.32;93.60
53932;BME280;39844;52.496;13.482;2023-03-16T05:00:50;101990.78;;;-0.31;93.52
53932;BME280;39844;52.496;13.482;2023-03-16T05:03:16;101987.19;;;-0.33;93.14
53932;BME280;39844;52.496;13.482;2023-03-16T05:05:41;101995.84;;;-0.32;92.81
53932;BME280;39844;52.496;13.482;2023-03-16T05:08:06;102001.00;;;-0.32;92.81
53932;BME280;39844;52.496;13.482;2023-03-16T05:10:33;102006.97;;;-0.33;92.81
53932;BME280;39844;52.496;13.482;2023-03-16T05:12:58;102008.66;;;-0.34;93.09
53932;BME280;39844;52.496;13.482;2023-03-16T05:15:24;102004.28;;;-0.35;93.32
53932;BME280;39844;52.496;13.482;2023-03-16T05:17:50;102007.69;;;-0.36;93.25
53932;BME280;39844;52.496;13.482;2023-03-16T05:20:16;102000.72;;;-0.37;93.29
53932;BME280;39844;52.496;13.482;2023-03-16T05:22:43;102004.97;;;-0.37;93.22
53932;BME280;39844;52.496;13.482;2023-03-16T05:25:10;102009.78;;;-0.43;92.80
53932;BME280;39844;52.496;13.482;2023-03-16T05:27:36;102010.50;;;-0.46;93.23
53932;BME280;39844;52.496;13.482;2023-03-16T05:30:01;102009.41;;;-0.49;93.26
53932;BME280;39844;52.496;13.482;2023-03-16T05:32:26;102014.28;;;-0.54;93.50
53932;BME280;39844;52.496;13.482;2023-03-16T05:34:52;102030.53;;;-0.55;93.99
53932;BME280;39844;52.496;13.482;2023-03-16T05:37:18;102010.63;;;-0.57;94.52
53932;BME280;39844;52.496;13.482;2023-03-16T05:39:43;102013.91;;;-0.60;94.65
53932;BME280;39844;52.496;13.482;2023-03-16T05:42:08;102014.69;;;-0.61;94.56
53932;BME280;39844;52.496;13.482;2023-03-16T05:44:34;102019.84;;;-0.61;95.13
53932;BME280;39844;52.496;13.482;2023-03-16T05:46:59;102012.94;;;-0.62;95.23
53932;BME280;39844;52.496;13.482;2023-03-16T05:49:24;102015.50;;;-0.62;95.42
53932;BME280;39844;52.496;13.482;2023-03-16T05:51:50;102028.47;;;-0.60;95.69
53932;BME280;39844;52.496;13.482;2023-03-16T05:54:17;102024.22;;;-0.60;95.83
53932;BME280;39844;52.496;13.482;2023-03-16T05:56:43;102027.69;;;-0.59;95.79
53932;BME280;39844;52.496;13.482;2023-03-16T05:59:08;102028.59;;;-0.59;95.83
53932;BME280;39844;52.496;13.482;2023-03-16T06:01:33;102031.25;;;-0.57;95.82
53932;BME280;39844;52.496;13.482;2023-03-16T06:03:59;102038.28;;;-0.55;96.45
53932;BME280;39844;52.496;13.482;2023-03-16T06:06:24;102039.38;;;-0.51;96.58
53932;BME280;39844;52.496;13.482;2023-03-16T06:08:50;102039.66;;;-0.47;96.68
53932;BME280;39844;52.496;13.482;2023-03-16T06:11:15;102043.31;;;-0.43;96.61
53932;BME280;39844;52.496;13.482;2023-03-16T06:13:41;102040.03;;;-0.41;96.38
53932;BME280;39844;52.496;13.482;2023-03-16T06:16:06;102040.31;;;-0.36;96.38
53932;BME280;39844;52.496;13.482;2023-03-16T06:18:33;102044.75;;;-0.34;96.07
53932;BME280;39844;52.496;13.482;2023-03-16T06:20:58;102045.94;;;-0.29;96.29
53932;BME280;39844;52.496;13.482;2023-03-16T06:23:23;102050.38;;;-0.26;96.30
53932;BME280;39844;52.496;13.482;2023-03-16T06:25:49;102046.97;;;-0.25;95.56
53932;BME280;39844;52.496;13.482;2023-03-16T06:28:15;102043.69;;;-0.23;95.67
53932;BME280;39844;52.496;13.482;2023-03-16T06:30:40;102046.59;;;-0.18;95.48
53932;BME280;39844;52.496;13.482;2023-03-16T06:33:06;102053.63;;;-0.16;95.22
53932;BME280;39844;52.496;13.482;2023-03-16T06:35:31;102054.66;;;-0.12;94.71
53932;BME280;39844;52.496;13.482;2023-03-16T06:37:56;102052.34;;;-0.08;94.63
53932;BME280;39844;52.496;13.482;2023-03-16T06:40:22;102057.91;;;-0.02;94.43
53932;BME280;39844;52.496;13.482;2023-03-16T06:42:47;102061.63;;;0.04;93.84
53932;BME280;39844;52.496;13.482;2023-03-16T06:45:13;102067.97;;;0.09;93.11
53932;BME280;39844;52.496;13.482;2023-03-16T06:47:38;102060.47;;;0.13;92.56
53932;BME280;39844;52.496;13.482;2023-03-16T06:50:04;102065.94;;;0.18;92.36
53932;BME280;39844;52.496;13.482;2023-03-16T06:52:29;102067.81;;;0.20;92.02
53932;BME280;39844;52.496;13.482;2023-03-16T06:54:54;102080.16;;;0.26;92.32
53932;BME280;39844;52.496;13.482;2023-03-16T06:57:20;102076.97;;;0.30;92.05
53932;BME280;39844;52.496;13.482;2023-03-16T06:59:45;102075.44;;;0.33;91.38
53932;BME280;39844;52.496;13.482;2023-03-16T07:02:11;102084.28;;;0.37;91.04
53932;BME280;39844;52.496;13.482;2023-03-16T07:04:36;102080.28;;;0.42;90.75
53932;BME280;39844;52.496;13.482;2023-03-16T07:07:02;102083.22;;;0.48;90.13
53932;BME280;39844;52.496;13.482;2023-03-16T07:09:27;102085.34;;;0.55;89.59
53932;BME280;39844;52.496;13.482;2023-03-16T07:11:52;102086.78;;;0.64;87.86
53932;BME280;39844;52.496;13.482;2023-03-16T07:14:18;102092.56;;;0.75;86.02
53932;BME280;39844;52.496;13.482;2023-03-16T07:16:43;102095.66;;;0.84;85.07
53932;BME280;39844;52.496;13.482;2023-03-16T07:19:08;102109.91;;;0.92;84.35
53932;BME280;39844;52.496;13.482;2023-03-16T07:21:34;102096.69;;;1.02;83.08
53932;BME280;39844;52.496;13.482;2023-03-16T07:23:59;102103.19;;;1.10;82.17
53932;BME280;39844;52.496;13.482;2023-03-16T07:26:24;102096.03;;;1.21;81.17
53932;BME280;39844;52.496;13.482;2023-03-16T07:28:49;102100.19;;;1.34;79.97
53932;BME280;39844;52.496;13.482;2023-03-16T07:31:15;102108.72;;;1.47;79.16
53932;BME280;39844;52.496;13.482;2023-03-16T07:33:40;102099.91;;;1.60;78.58
53932;BME280;39844;52.496;13.482;2023-03-16T07:36:06;102101.28;;;1.69;77.39
53932;BME280;39844;52.496;13.482;2023-03-16T07:38:31;102106.94;;;1.78;77.03
53932;BME280;39844;52.496;13.482;2023-03-16T07:41:00;102110.13;;;1.89;76.01
53932;BME280;39844;52.496;13.482;2023-03-16T07:43:25;102114.91;;;1.98;75.30
53932;BME280;39844;52.496;13.482;2023-03-16T07:45:51;102113.50;;;2.04;75.16
53932;BME280;39844;52.496;13.482;2023-03-16T07:48:17;102117.38;;;2.12;74.49
53932;BME280;39844;52.496;13.482;2023-03-16T07:50:43;102110.81;;;2.19;74.23
53932;BME280;39844;52.496;13.482;2023-03-16T07:53:09;102108.63;;;2.26;73.36
53932;BME280;39844;52.496;13.482;2023-03-16T07:55:34;102105.56;;;2.33;72.67
53932;BME280;39844;52.496;13.482;2023-03-16T07:58:00;102110.22;;;2.40;73.15
53932;BME280;39844;52.496;13.482;2023-03-16T08:00:25;102111.53;;;2.48;72.80
53932;BME280;39844;52.496;13.482;2023-03-16T08:02:50;102118.78;;;2.55;72.92
53932;BME280;39844;52.496;13.482;2023-03-16T08:05:19;102116.50;;;2.62;72.22
53932;BME280;39844;52.496;13.482;2023-03-16T08:07:44;102110.81;;;2.69;71.39
53932;BME280;39844;52.496;13.482;2023-03-16T08:10:10;102122.38;;;2.75;71.05
53932;BME280;39844;52.496;13.482;2023-03-16T08:12:35;102127.13;;;2.84;70.61
53932;BME280;39844;52.496;13.482;2023-03-16T08:15:01;102124.13;;;2.92;70.07
53932;BME280;39844;52.496;13.482;2023-03-16T08:17:26;102119.31;;;3.00;69.42
53932;BME280;39844;52.496;13.482;2023-03-16T08:19:51;102113.59;;;3.07;68.80
53932;BME280;39844;52.496;13.482;2023-03-16T08:22:17;102116.59;;;3.16;68.96
53932;BME280;39844;52.496;13.482;2023-03-16T08:24:42;102113.47;;;3.23;68.72
53932;BME280;39844;52.496;13.482;2023-03-16T08:27:08;102113.78;;;3.29;68.45
53932;BME280;39844;52.496;13.482;2023-03-16T08:29:33;102106.38;;;3.37;68.27
53932;BME280;39844;52.496;13.482;2023-03-16T08:31:59;102110.97;;;3.42;67.30
53932;BME280;39844;52.496;13.482;2023-03-16T08:34:24;102112.06;;;3.47;67.03
53932;BME280;39844;52.496;13.482;2023-03-16T08:36:50;102119.50;;;3.59;66.84
53932;BME280;39844;52.496;13.482;2023-03-16T08:39:15;102115.56;;;3.67;66.43
53932;BME280;39844;52.496;13.482;2023-03-16T08:41:42;102116.81;;;3.75;65.82
53932;BME280;39844;52.496;13.482;2023-03-16T08:44:09;102118.81;;;3.80;65.19
53932;BME280;39844;52.496;13.482;2023-03-16T08:46:34;102120.72;;;3.84;65.00
53932;BME280;39844;52.496;13.482;2023-03-16T08:49:00;102118.41;;;3.91;65.40
53932;BME280;39844;52.496;13.482;2023-03-16T08:51:28;102116.91;;;3.96;65.26
53932;BME280;39844;52.496;13.482;2023-03-16T08:53:54;102127.44;;;3.99;64.54
53932;BME280;39844;52.496;13.482;2023-03-16T08:56:19;102127.63;;;4.03;64.35
53932;BME280;39844;52.496;13.482;2023-03-16T08:58:45;102128.88;;;4.11;64.05
53932;BME280;39844;52.496;13.482;2023-03-16T09:01:15;102130.03;;;4.18;63.51
53932;BME280;39844;52.496;13.482;2023-03-16T09:03:40;102131.25;;;4.26;63.36
53932;BME280;39844;52.496;13.482;2023-03-16T09:06:08;102130.56;;;4.30;63.62
53932;BME280;39844;52.496;13.482;2023-03-16T09:08:34;102133.38;;;4.34;63.07
53932;BME280;39844;52.496;13.482;2023-03-16T09:11:02;102132.72;;;4.40;63.10
53932;BME280;39844;52.496;13.482;2023-03-16T09:13:29;102129.59;;;4.47;63.86
53932;BME280;39844;52.496;13.482;2023-03-16T09:15:54;102133.38;;;4.55;62.99
53932;BME280;39844;52.496;13.482;2023-03-16T09:18:19;102136.34;;;4.63;61.48
53932;BME280;39844;52.496;13.482;2023-03-16T09:20:45;102144.34;;;4.67;61.25
53932;BME280;39844;52.496;13.482;2023-03-16T09:23:10;102139.31;;;4.72;59.82
53932;BME280;39844;52.496;13.482;2023-03-16T09:25:36;102139.50;;;4.76;60.20
53932;BME280;39844;52.496;13.482;2023-03-16T09:28:01;102138.94;;;4.83;59.57
53932;BME280;39844;52.496;13.482;2023-03-16T09:30:26;102141.81;;;4.89;59.70
53932;BME280;39844;52.496;13.482;2023-03-16T09:32:52;102148.13;;;4.96;57.45
53932;BME280;39844;52.496;13.482;2023-03-16T09:35:18;102140.47;;;4.99;57.08
53932;BME280;39844;52.496;13.482;2023-03-16T09:37:43;102148.44;;;5.03;56.65
53932;BME280;39844;52.496;13.482;2023-03-16T09:40:22;102139.25;;;5.11;57.10
53932;BME280;39844;52.496;13.482;2023-03-16T09:47:56;102146.22;;;5.33;57.84
53932;BME280;39844;52.496;13.482;2023-03-16T09:50:27;102144.69;;;5.38;56.88
53932;BME280;39844;52.496;13.482;2023-03-16T09:55:46;102144.91;;;5.44;55.83
53932;BME280;39844;52.496;13.482;2023-03-16T09:58:16;102146.69;;;5.45;54.98
53932;BME280;39844;52.496;13.482;2023-03-16T10:03:29;102149.59;;;5.53;54.78
53932;BME280;39844;52.496;13.482;2023-03-16T10:06:02;102147.31;;;5.60;54.36
53932;BME280;39844;52.496;13.482;2023-03-16T10:08:58;102144.06;;;5.66;51.96
53932;BME280;39844;52.496;13.482;2023-03-16T10:11:36;102145.25;;;5.74;53.00
53932;BME280;39844;52.496;13.482;2023-03-16T10:16:49;102138.72;;;5.85;52.00
53932;BME280;39844;52.496;13.482;2023-03-16T10:19:25;102138.16;;;5.92;52.36
53932;BME280;39844;52.496;13.482;2023-03-16T10:21:56;102133.88;;;5.94;50.92
53932;BME280;39844;52.496;13.482;2023-03-16T10:27:06;102133.16;;;5.98;50.75
53932;BME280;39844;52.496;13.482;2023-03-16T10:29:37;102140.03;;;5.96;49.04
53932;BME280;39844;52.496;13.482;2023-03-16T10:32:16;102134.94;;;5.99;49.61
53932;BME280;39844;52.496;13.482;2023-03-16T10:34:55;102133.28;;;6.01;48.75
53932;BME280;39844;52.496;13.482;2023-03-16T10:37:23;102130.66;;;6.01;47.02
53932;BME280;39844;52.496;13.482;2023-03-16T10:39:48;102120.25;;;6.01;46.01
53932;BME280;39844;52.496;13.482;2023-03-16T10:42:19;102128.38;;;6.10;47.30
53932;BME280;39844;52.496;13.482;2023-03-16T10:44:44;102125.91;;;6.13;46.73
53932;BME280;39844;52.496;13.482;2023-03-16T10:47:22;102126.13;;;6.19;47.20
53932;BME280;39844;52.496;13.482;2023-03-16T10:49:48;102114.16;;;6.24;48.00
53932;BME280;39844;52.496;13.482;2023-03-16T10:52:34;102117.91;;;6.32;49.96
53932;BME280;39844;52.496;13.482;2023-03-16T10:55:21;102125.13;;;6.40;50.00
53932;BME280;39844;52.496;13.482;2023-03-16T10:57:53;102116.56;;;6.44;48.92
53932;BME280;39844;52.496;13.482;2023-03-16T11:00:42;102121.84;;;6.45;47.49
53932;BME280;39844;52.496;13.482;2023-03-16T11:03:29;102128.72;;;6.43;46.88
53932;BME280;39844;52.496;13.482;2023-03-16T11:06:03;102116.66;;;6.47;46.98
53932;BME280;39844;52.496;13.482;2023-03-16T11:08:38;102124.75;;;6.54;47.49
53932;BME280;39844;52.496;13.482;2023-03-16T11:14:10;102113.50;;;6.55;46.38
53932;BME280;39844;52.496;13.482;2023-03-16T11:16:41;102110.94;;;6.57;46.50
53932;BME280;39844;52.496;13.482;2023-03-16T11:19:14;102110.25;;;6.62;47.00
53932;BME280;39844;52.496;13.482;2023-03-16T11:22:01;102100.91;;;6.69;47.31
53932;BME280;39844;52.496;13.482;2023-03-16T11:30:36;102097.06;;;7.10;48.48
53932;BME280;39844;52.496;13.482;2023-03-16T11:33:09;102100.94;;;7.22;47.93
53932;BME280;39844;52.496;13.482;2023-03-16T11:38:16;102090.13;;;7.38;46.03
53932;BME280;39844;52.496;13.482;2023-03-16T11:41:05;102086.69;;;7.39;44.41
53932;BME280;39844;52.496;13.482;2023-03-16T11:54:33;102068.19;;;8.86;43.32
53932;BME280;39844;52.496;13.482;2023-03-16T11:57:16;102056.41;;;9.44;42.36
53932;BME280;39844;52.496;13.482;2023-03-16T12:09:01;102045.47;;;11.04;39.90
53932;BME280;39844;52.496;13.482;2023-03-16T12:11:45;102047.75;;;11.39;38.65
53932;BME280;39844;52.496;13.482;2023-03-16T12:14:17;102040.38;;;11.77;39.42
53932;BME280;39844;52.496;13.482;2023-03-16T12:17:02;102028.38;;;11.99;37.41
53932;BME280;39844;52.496;13.482;2023-03-16T12:19:40;102029.47;;;12.21;35.54
53932;BME280;39844;52.496;13.482;2023-03-16T12:22:19;102021.91;;;12.52;34.47
53932;BME280;39844;52.496;13.482;2023-03-16T12:24:45;102025.63;;;12.77;35.47
53932;BME280;39844;52.496;13.482;2023-03-16T12:27:14;102017.78;;;12.83;34.42
53932;BME280;39844;52.496;13.482;2023-03-16T12:34:46;102011.72;;;12.98;32.93
53932;BME280;39844;52.496;13.482;2023-03-16T12:45:01;101988.03;;;13.02;34.91
53932;BME280;39844;52.496;13.482;2023-03-16T12:50:04;101988.31;;;13.55;33.59
53932;BME280;39844;52.496;13.482;2023-03-16T12:52:39;101986.63;;;13.66;32.68
53932;BME280;39844;52.496;13.482;2023-03-16T12:55:39;101990.19;;;13.79;32.47
53932;BME280;39844;52.496;13.482;2023-03-16T12:58:07;101987.59;;;13.92;32.35
53932;BME280;39844;52.496;13.482;2023-03-16T13:00:37;101990.22;;;13.99;30.69
53932;BME280;39844;52.496;13.482;2023-03-16T13:03:05;101988.44;;;13.88;31.05
53932;BME280;39844;52.496;13.482;2023-03-16T13:05:36;101970.00;;;13.85;30.40
53932;BME280;39844;52.496;13.482;2023-03-16T13:08:14;101977.00;;;13.83;29.63
53932;BME280;39844;52.496;13.482;2023-03-16T13:10:39;101969.06;;;13.74;29.28
53932;BME280;39844;52.496;13.482;2023-03-16T13:13:14;101969.09;;;13.85;30.26
53932;BME280;39844;52.496;13.482;2023-03-16T13:15:40;101966.44;;;13.86;30.40
53932;BME280;39844;52.496;13.482;2023-03-16T13:20:49;101964.69;;;13.82;30.55
53932;BME280;39844;52.496;13.482;2023-03-16T13:25:44;101947.97;;;13.77;31.05
53932;BME280;39844;52.496;13.482;2023-03-16T13:28:14;101962.03;;;13.75;31.06
53932;BME280;39844;52.496;13.482;2023-03-16T13:30:47;101961.97;;;13.63;31.34
53932;BME280;39844;52.496;13.482;2023-03-16T13:33:20;101954.94;;;13.60;31.74
53932;BME280;39844;52.496;13.482;2023-03-16T13:35:47;101963.75;;;13.65;31.48
53932;BME280;39844;52.496;13.482;2023-03-16T13:38:14;101961.97;;;13.63;31.28
53932;BME280;39844;52.496;13.482;2023-03-16T13:40:48;101965.47;;;13.56;30.28
53932;BME280;39844;52.496;13.482;2023-03-16T13:43:14;101959.38;;;13.67;30.92
53932;BME280;39844;52.496;13.482;2023-03-16T13:45:40;101947.91;;;13.59;29.08
53932;BME280;39844;52.496;13.482;2023-03-16T13:48:09;101956.63;;;13.43;28.04
53932;BME280;39844;52.496;13.482;2023-03-16T13:50:35;101960.16;;;13.45;29.51
53932;BME280;39844;52.496;13.482;2023-03-16T13:53:02;101952.22;;;13.45;30.28
53932;BME280;39844;52.496;13.482;2023-03-16T13:55:31;101943.44;;;13.43;31.11
53932;BME280;39844;52.496;13.482;2023-03-16T13:57:57;101935.59;;;13.52;30.86
53932;BME280;39844;52.496;13.482;2023-03-16T14:00:25;101932.06;;;13.59;31.00